createdAt,value
2023-02-19T00:04:38.037Z,25.40
2023-02-19T00:09:42.021Z,26.13
2023-02-19T00:14:45.962Z,26.73
2023-02-19T00:19:49.672Z,30.85
2023-02-19T00:24:53.693Z,31.27
2023-02-19T00:29:57.565Z,31.30
2023-02-19T00:35:01.624Z,29.92
2023-02-19T00:40:06.591Z,27.27
2023-02-19T00:45:10.301Z,28.42
2023-02-19T00:50:14.096Z,25.23
2023-02-19T00:55:17.937Z,30.48
2023-02-19T01:00:21.867Z,25.48
2023-02-19T01:05:25.886Z,26.95
2023-02-19T01:10:29.894Z,23.33
2023-02-19T01:15:35.088Z,29.60
2023-02-19T01:20:43.241Z,23.75
2023-02-19T01:25:46.988Z,27.57
2023-02-19T01:30:51.111Z,28.65
2023-02-19T01:35:55.197Z,23.25
2023-02-19T01:41:05.377Z,24.67
2023-02-19T01:46:09.093Z,12.63
2023-02-19T01:51:18.537Z,27.45
2023-02-19T01:56:24.838Z,28.17
2023-02-19T02:01:28.846Z,27.48
2023-02-19T02:06:43.222Z,24.65
2023-02-19T02:11:52.569Z,18.20
2023-02-19T02:16:57.353Z,24.67
2023-02-19T02:22:23.149Z,25.13
2023-02-19T02:27:41.685Z,25.85
2023-02-19T02:33:05.632Z,25.38
2023-02-19T02:38:15.453Z,29.83
2023-02-19T02:43:19.590Z,22.67
2023-02-19T02:48:39.714Z,25.45
2023-02-19T02:54:26.896Z,24.63
2023-02-19T02:59:41.074Z,24.52
2023-02-19T03:05:06.444Z,25.83
2023-02-19T03:10:17.031Z,25.17
2023-02-19T03:15:41.104Z,22.02
2023-02-19T03:21:05.256Z,23.98
2023-02-19T03:26:11.419Z,21.80
2023-02-19T03:31:25.212Z,22.52
2023-02-19T03:36:36.865Z,23.73
2023-02-19T03:41:56.008Z,18.92
2023-02-19T03:47:35.265Z,21.38
2023-02-19T03:52:54.391Z,20.45
2023-02-19T03:58:21.144Z,22.52
2023-02-19T04:03:44.758Z,18.30
2023-02-19T04:08:54.201Z,20.52
2023-02-19T04:14:15.888Z,20.63
2023-02-19T04:19:24.190Z,17.02
2023-02-19T04:24:34.231Z,22.15
2023-02-19T04:29:39.303Z,17.67
2023-02-19T04:34:43.615Z,17.88
2023-02-19T04:39:47.658Z,17.60
2023-02-19T04:44:51.662Z,19.77
2023-02-19T04:49:57.558Z,13.95
2023-02-19T04:55:01.199Z,19.67
2023-02-19T05:00:08.863Z,18.75
2023-02-19T05:05:12.689Z,19.90
2023-02-19T05:10:16.848Z,18.95
2023-02-19T05:15:20.608Z,16.42
2023-02-19T05:20:24.602Z,21.15
2023-02-19T05:25:28.445Z,15.80
2023-02-19T05:30:32.592Z,18.23
2023-02-19T05:35:42.552Z,16.70
2023-02-19T05:40:47.113Z,16.67
2023-02-19T05:45:50.950Z,18.02
2023-02-19T05:50:54.870Z,16.90
2023-02-19T05:55:58.959Z,19.10
2023-02-19T06:01:02.979Z,19.35
2023-02-19T06:06:07.251Z,14.45
2023-02-19T06:11:11.454Z,18.00
2023-02-19T06:16:18.084Z,14.55
2023-02-19T06:21:21.925Z,18.33
2023-02-19T06:26:26.438Z,18.85
2023-02-19T06:31:30.618Z,17.80
2023-02-19T06:36:35.484Z,17.77
2023-02-19T06:41:39.636Z,14.80
2023-02-19T06:46:43.936Z,15.73
2023-02-19T06:51:47.741Z,17.10
2023-02-19T06:56:51.779Z,17.58
2023-02-19T07:01:56.717Z,18.73
2023-02-19T07:07:01.082Z,15.65
2023-02-19T07:12:05.567Z,16.33
2023-02-19T07:17:09.330Z,16.88
2023-02-19T07:22:13.279Z,16.95
2023-02-19T07:27:17.190Z,18.05
2023-02-19T07:32:20.917Z,14.50
2023-02-19T07:37:24.864Z,12.70
2023-02-19T07:42:28.824Z,16.63
2023-02-19T07:47:33.038Z,13.38
2023-02-19T07:52:36.972Z,15.77
2023-02-19T07:57:40.844Z,13.93
2023-02-19T08:03:03.788Z,16.73
2023-02-19T08:08:09.951Z,13.05
2023-02-19T08:13:26.187Z,16.52
2023-02-19T08:18:32.868Z,14.35
2023-02-19T08:23:37.384Z,17.75
2023-02-19T08:28:41.630Z,14.85
2023-02-19T08:33:45.516Z,15.43
2023-02-19T08:38:49.359Z,15.85
2023-02-19T08:43:53.505Z,13.30
2023-02-19T08:48:57.472Z,12.45
2023-02-19T08:54:05.151Z,11.35
2023-02-19T08:59:08.872Z,13.10
2023-02-19T09:04:16.106Z,16.77
2023-02-19T09:09:19.922Z,12.35
2023-02-19T09:14:23.731Z,9.57
2023-02-19T09:19:28.310Z,16.13
2023-02-19T09:24:32.954Z,14.18
2023-02-19T09:29:36.965Z,14.48
2023-02-19T09:34:40.973Z,13.38
2023-02-19T09:39:45.441Z,12.27
2023-02-19T09:44:51.423Z,13.18
2023-02-19T09:50:07.428Z,11.98
2023-02-19T09:55:37.838Z,11.38
2023-02-19T10:00:41.713Z,11.95
2023-02-19T10:05:45.787Z,11.02
2023-02-19T10:10:49.876Z,16.10
2023-02-19T10:16:02.670Z,14.18
2023-02-19T10:21:26.248Z,12.52
2023-02-19T10:26:35.722Z,13.65
2023-02-19T10:31:39.722Z,12.55
2023-02-19T10:36:46.131Z,13.70
2023-02-19T10:41:52.207Z,13.40
2023-02-19T10:47:00.580Z,10.77
2023-02-19T10:52:24.993Z,12.60
2023-02-19T10:57:33.365Z,12.10
2023-02-19T11:02:37.324Z,13.10
2023-02-19T11:07:48.300Z,16.13
2023-02-19T11:12:54.501Z,13.40
2023-02-19T11:18:04.122Z,13.93
2023-02-19T11:23:17.472Z,12.15
2023-02-19T11:28:27.422Z,14.15
2023-02-19T11:33:31.764Z,12.35
2023-02-19T11:38:36.192Z,12.48
2023-02-19T11:43:59.313Z,14.60
2023-02-19T11:49:27.465Z,13.48
2023-02-19T11:54:51.936Z,11.95
2023-02-19T12:00:19.954Z,12.77
2023-02-19T12:05:48.858Z,12.70
2023-02-19T12:11:06.292Z,13.45
2023-02-19T12:16:25.258Z,14.27
2023-02-19T12:22:15.345Z,12.15
2023-02-19T12:27:35.204Z,12.48
2023-02-19T12:33:05.659Z,14.15
2023-02-19T12:38:23.462Z,10.80
2023-02-19T12:43:27.477Z,11.10
2023-02-19T12:48:37.450Z,17.52
2023-02-19T12:53:49.235Z,9.65
2023-02-19T12:59:13.010Z,14.85
2023-02-19T13:04:38.532Z,12.57
2023-02-19T13:09:53.208Z,12.35
2023-02-19T13:15:04.611Z,16.15
2023-02-19T13:20:15.769Z,13.75
2023-02-19T13:25:22.027Z,11.30
2023-02-19T13:30:32.460Z,13.55
2023-02-19T13:36:11.368Z,15.88
2023-02-19T13:41:57.415Z,51.22
2023-02-19T13:47:01.539Z,54.95
2023-02-19T13:52:32.291Z,74.00
2023-02-19T13:57:36.705Z,72.60
2023-02-19T14:02:42.325Z,49.58
2023-02-19T14:07:55.396Z,38.33
2023-02-19T14:12:59.391Z,26.05
2023-02-19T14:18:03.370Z,28.27
2023-02-19T14:23:17.869Z,28.83
2023-02-19T14:28:39.075Z,24.95
2023-02-19T14:34:23.746Z,19.25
2023-02-19T14:39:34.136Z,19.23
2023-02-19T14:45:00.301Z,24.60
2023-02-19T14:50:09.928Z,20.70
2023-02-19T14:55:29.835Z,18.98
2023-02-19T15:00:39.565Z,17.98
2023-02-19T15:05:45.973Z,20.17
2023-02-19T15:10:49.897Z,15.65
2023-02-19T15:15:56.067Z,18.92
2023-02-19T15:21:06.424Z,21.10
2023-02-19T15:26:24.437Z,24.45
2023-02-19T15:31:28.526Z,22.40
2023-02-19T15:36:36.243Z,23.77
2023-02-19T15:41:40.359Z,20.80
2023-02-19T15:47:07.834Z,15.27
2023-02-19T15:52:27.917Z,17.65
2023-02-19T15:57:39.743Z,15.65
2023-02-19T16:02:43.843Z,20.15
2023-02-19T16:07:47.836Z,17.17
2023-02-19T16:13:03.150Z,16.00
2023-02-19T16:18:07.158Z,16.30
2023-02-19T16:23:17.487Z,17.05
2023-02-19T16:28:25.017Z,15.43
2023-02-19T16:33:37.914Z,18.05
2023-02-19T16:38:41.741Z,16.33
2023-02-19T16:43:45.878Z,14.65
2023-02-19T16:48:50.821Z,15.32
2023-02-19T16:53:54.837Z,16.20
2023-02-19T16:58:58.647Z,15.88
2023-02-19T17:04:07.003Z,15.60
2023-02-19T17:09:11.276Z,17.80
2023-02-19T17:14:15.299Z,18.00
2023-02-19T17:19:20.306Z,18.85
2023-02-19T17:24:25.221Z,15.82
2023-02-19T17:29:31.157Z,15.68
2023-02-19T17:34:35.133Z,16.00
2023-02-19T17:39:38.957Z,17.75
2023-02-19T17:44:43.169Z,17.40
2023-02-19T17:49:47.228Z,22.55
2023-02-19T17:54:50.935Z,17.63
2023-02-19T17:59:54.964Z,20.00
2023-02-19T18:04:58.808Z,22.40
2023-02-19T18:10:04.212Z,13.93
2023-02-19T18:15:10.159Z,18.45
2023-02-19T18:20:19.631Z,23.15
2023-02-19T18:25:24.160Z,19.23
2023-02-19T18:30:29.329Z,20.13
2023-02-19T18:35:34.836Z,16.05
2023-02-19T18:40:39.603Z,21.55
2023-02-19T18:45:47.509Z,22.52
2023-02-19T18:50:51.271Z,17.13
2023-02-19T18:55:55.132Z,19.23
2023-02-19T19:00:59.940Z,14.73
2023-02-19T19:06:03.827Z,14.82
2023-02-19T19:11:07.824Z,17.15
2023-02-19T19:16:11.671Z,19.30
2023-02-19T19:21:17.182Z,18.35
2023-02-19T19:26:21.053Z,18.67
2023-02-19T19:31:28.442Z,17.15
2023-02-19T19:36:32.271Z,13.90
2023-02-19T19:41:36.513Z,17.58
2023-02-19T19:46:49.477Z,18.58
2023-02-19T19:51:53.507Z,17.23
2023-02-19T19:56:57.691Z,18.23
2023-02-19T20:02:03.454Z,18.13
2023-02-19T20:07:07.631Z,18.17
2023-02-19T20:12:12.075Z,16.38
2023-02-19T20:17:17.688Z,16.02
2023-02-19T20:22:21.504Z,17.70
2023-02-19T20:27:25.589Z,16.35
2023-02-19T20:32:29.334Z,15.55
2023-02-19T20:37:33.259Z,16.52
2023-02-19T20:42:38.582Z,17.02
2023-02-19T20:47:42.524Z,13.02
2023-02-19T20:52:47.774Z,17.33
2023-02-19T20:57:51.637Z,16.42
2023-02-19T21:02:55.612Z,18.42
2023-02-19T21:07:59.505Z,16.30
2023-02-19T21:13:03.450Z,15.77
2023-02-19T21:18:07.697Z,16.88
2023-02-19T21:23:11.479Z,17.55
2023-02-19T21:28:15.544Z,16.30
2023-02-19T21:33:19.405Z,15.25
2023-02-19T21:38:24.132Z,16.73
2023-02-19T21:43:30.467Z,14.85
2023-02-19T21:48:34.407Z,17.45
2023-02-19T21:53:39.155Z,11.90
2023-02-19T21:58:44.776Z,16.10
2023-02-19T22:03:48.850Z,16.92
2023-02-19T22:08:53.059Z,14.40
2023-02-19T22:13:57.141Z,18.53
2023-02-19T22:19:01.286Z,16.13
2023-02-19T22:24:05.501Z,20.63
2023-02-19T22:29:10.901Z,16.70
2023-02-19T22:34:17.110Z,18.52
2023-02-19T22:39:27.408Z,16.58
2023-02-19T22:44:31.238Z,14.37
2023-02-19T22:49:38.378Z,17.13
2023-02-19T22:54:42.206Z,13.23
2023-02-19T22:59:46.148Z,15.40
2023-02-19T23:04:49.985Z,14.50
2023-02-19T23:09:53.864Z,14.80
2023-02-19T23:14:57.830Z,12.63
2023-02-19T23:20:03.082Z,15.17
2023-02-19T23:25:07.684Z,16.60
2023-02-19T23:30:11.927Z,13.67
2023-02-19T23:35:15.984Z,12.87
2023-02-19T23:40:19.799Z,15.87
2023-02-19T23:45:24.434Z,15.23
2023-02-19T23:50:29.212Z,15.80
2023-02-19T23:55:33.030Z,14.83
